Time;durP1;ratioP1;P1;durP2;ratioP2;P2;SDS_P1;SDS_P2;PMS_P1;PMS_P2;Temp;Humidity;BMP_temperature;BMP_pressure;BME280_temperature;BME280_humidity;BME280_pressure;Samples;Min_cycle;Max_cycle;Signal;HPM_P1;HPM_P2
2022/12/21 00:02:45;;;;;;;;;;;;;;;;;;8344375;28;27480;-74
2022/12/21 00:06:45;;;;;;;;;;;;;;;;;;8343394;28;27404;-75
2022/12/21 00:10:45;;;;;;;;;;;;;;;;;;8343277;28;27388;-76
2022/12/21 00:14:45;;;;;;;;;;;;;;;;;;8337107;28;28919;-76
2022/12/21 00:18:45;;;;;;;;;;;;;;;;;;8325506;28;28684;-76
2022/12/21 00:22:46;;;;;;;;;;;;;;;;;;8343801;28;27444;-74
2022/12/21 00:26:46;;;;;;;;;;;;;;;;;;8342214;28;27425;-76
2022/12/21 00:30:46;;;;;;;;;;;;;;;;;;8338290;28;29185;-75
2022/12/21 00:34:46;;;;;;;;;;;;;;;;;;8337697;28;27429;-75
2022/12/21 00:38:49;;;;;;;;;;;;;;;;;;8339960;28;27377;-75
2022/12/21 00:42:49;;;;;;;;;;;;;;;;;;8338187;28;28626;-76
2022/12/21 00:46:49;;;;;;;;;;;;;;;;;;8338917;28;28404;-75
2022/12/21 00:50:49;;;;;;;;;;;;;;;;;;8342302;28;27844;-76
2022/12/21 00:54:49;;;;;;;;;;;;;;;;;;8339233;28;27698;-76
2022/12/21 00:58:50;;;;;;;;;;;;;;;;;;8342962;28;27514;-76
2022/12/21 01:02:50;;;;;;;;;;;;;;;;;;8345593;28;28333;-78
2022/12/21 01:06:50;;;;;;;;;;;;;;;;;;8348139;28;27779;-77
2022/12/21 01:10:50;;;;;;;;;;;;;;;;;;8343008;28;28782;-78
2022/12/21 01:14:50;;;;;;;;;;;;;;;;;;8339632;28;28472;-78
2022/12/21 01:18:50;;;;;;;;;;;;;;;;;;8342569;28;27339;-78
2022/12/21 01:22:50;;;;;;;;;;;;;;;;;;8341105;28;27748;-80
2022/12/21 01:26:50;;;;;;;;;;;;;;;;;;8321610;28;28380;-79
2022/12/21 01:30:50;;;;;;;;;;;;;;;;;;8337578;28;27478;-79
2022/12/21 01:34:50;;;;;;;;;;;;;;;;;;8341738;28;27434;-77
2022/12/21 01:38:50;;;;;;;;;;;;;;;;;;8343286;28;27522;-77
2022/12/21 01:42:50;;;;;;;;;;;;;;;;;;8324515;28;28828;-78
2022/12/21 01:46:51;;;;;;;;;;;;;;;;;;8343136;28;27982;-78
2022/12/21 01:50:51;;;;;;;;;;;;;;;;;;8339029;28;27569;-79
2022/12/21 01:54:51;;;;;;;;;;;;;;;;;;8340653;28;28631;-79
2022/12/21 01:58:51;;;;;;;;;;;;;;;;;;8339329;28;27921;-78
2022/12/21 02:02:51;;;;;;;;;;;;;;;;;;8340388;28;27260;-77
2022/12/21 02:06:51;;;;;;;;;;;;;;;;;;8340777;28;28277;-77
2022/12/21 02:10:51;;;;;;;;;;;;;;;;;;8341049;28;27470;-77
2022/12/21 02:14:51;;;;;;;;;;;;;;;;;;8341252;28;28726;-77
2022/12/21 02:18:51;;;;;;;;;;;;;;;;;;8343237;28;27942;-77
2022/12/21 02:22:51;;;;;;;;;;;;;;;;;;8342439;28;27715;-77
2022/12/21 02:26:52;;;;;;;;;;;;;;;;;;8338662;28;28145;-79
2022/12/21 02:30:52;;;;;;;;;;;;;;;;;;8339905;28;27391;-78
2022/12/21 02:34:52;;;;;;;;;;;;;;;;;;8320894;28;28475;-78
2022/12/21 02:38:52;;;;;;;;;;;;;;;;;;8338926;28;30111;-79
2022/12/21 02:47:11;;;;;;;;;;;;;;;;;;8340017;28;27601;-77
2022/12/21 02:51:11;;;;;;;;;;;;;;;;;;8339959;28;28291;-77
2022/12/21 02:55:11;;;;;;;;;;;;;;;;;;8339545;28;27319;-77
2022/12/21 02:59:11;;;;;;;;;;;;;;;;;;8323004;28;29195;-77
2022/12/21 03:07:30;;;;;;;;;;;;;;;;;;8343298;28;27446;-79
2022/12/21 03:11:31;;;;;;;;;;;;;;;;;;8351653;28;27630;-78
2022/12/21 03:15:31;;;;;;;;;;;;;;;;;;8339862;28;28520;-77
2022/12/21 03:19:31;;;;;;;;;;;;;;;;;;8344255;28;28848;-77
2022/12/21 03:23:31;;;;;;;;;;;;;;;;;;8344505;28;27380;-78
2022/12/21 03:27:31;;;;;;;;;;;;;;;;;;8330611;28;28543;-78
2022/12/21 03:31:31;;;;;;;;;;;;;;;;;;8330820;28;28651;-78
2022/12/21 03:35:31;;;;;;;;;;;;;;;;;;8338610;28;30045;-77
2022/12/21 03:39:31;;;;;;;;;;;;;;;;;;8337776;28;27621;-74
2022/12/21 03:43:31;;;;;;;;;;;;;;;;;;8342602;28;27389;-75
2022/12/21 03:47:31;;;;;;;;;;;;;;;;;;8337954;28;27375;-77
2022/12/21 03:51:31;;;;;;;;;;;;;;;;;;8338392;28;27452;-75
2022/12/21 03:55:31;;;;;;;;;;;;;;;;;;8341822;28;27483;-76
2022/12/21 03:59:32;;;;;;;;;;;;;;;;;;8337267;28;27718;-77
2022/12/21 04:03:32;;;;;;;;;;;;;;;;;;8324462;28;28641;-78
2022/12/21 04:07:32;;;;;;;;;;;;;;;;;;8335569;28;27698;-77
2022/12/21 04:16:03;;;;;;;;;;;;;;;;;;8342193;28;27309;-78
2022/12/21 04:20:03;;;;;;;;;;;;;;;;;;8338341;28;27570;-76
2022/12/21 04:28:22;;;;;;;;;;;;;;;;;;8333523;28;27601;-77
2022/12/21 04:32:22;;;;;;;;;;;;;;;;;;8326853;28;28856;-78
2022/12/21 04:40:41;;;;;;;;;;;;;;;;;;8338402;28;27455;-77
2022/12/21 04:44:41;;;;;;;;;;;;;;;;;;8342167;28;27867;-77
2022/12/21 04:48:41;;;;;;;;;;;;;;;;;;8339143;28;27773;-77
2022/12/21 04:52:42;;;;;;;;;;;;;;;;;;8342355;28;28398;-76
2022/12/21 04:56:42;;;;;;;;;;;;;;;;;;8343727;28;27464;-78
2022/12/21 05:00:42;;;;;;;;;;;;;;;;;;8347851;28;27316;-78
2022/12/21 05:04:42;;;;;;;;;;;;;;;;;;8327612;28;28832;-78
2022/12/21 05:08:42;;;;;;;;;;;;;;;;;;8337785;28;28747;-79
2022/12/21 05:12:42;;;;;;;;;;;;;;;;;;8346201;28;27541;-77
2022/12/21 05:16:42;;;;;;;;;;;;;;;;;;8344848;28;27440;-79
2022/12/21 05:20:42;;;;;;;;;;;;;;;;;;8341216;28;30179;-77
2022/12/21 05:24:43;;;;;;;;;;;;;;;;;;8334067;28;28399;-79
2022/12/21 05:28:43;;;;;;;;;;;;;;;;;;8323262;28;28350;-79
2022/12/21 05:32:43;;;;;;;;;;;;;;;;;;8328748;28;27612;-79
2022/12/21 05:36:43;;;;;;;;;;;;;;;;;;8327326;28;28639;-79
2022/12/21 05:40:43;;;;;;;;;;;;;;;;;;8339889;28;27539;-78
2022/12/21 05:44:43;;;;;;;;;;;;;;;;;;8341838;28;27966;-77
2022/12/21 05:48:43;;;;;;;;;;;;;;;;;;8345345;28;27584;-73
2022/12/21 05:52:43;;;;;;;;;;;;;;;;;;8339648;28;28778;-80
2022/12/21 05:56:43;;;;;;;;;;;;;;;;;;8342638;28;28454;-78
2022/12/21 06:00:44;;;;;;;;;;;;;;;;;;8343114;28;27905;-79
2022/12/21 06:04:44;;;;;;;;;;;;;;;;;;8343606;28;28536;-78
2022/12/21 06:08:44;;;;;;;;;;;;;;;;;;8325469;28;30207;-78
2022/12/21 06:12:44;;;;;;;;;;;;;;;;;;8337138;28;27403;-78
2022/12/21 06:16:45;;;;;;;;;;;;;;;;;;8341405;28;28028;-77
2022/12/21 06:20:45;;;;;;;;;;;;;;;;;;8324425;28;28704;-79
2022/12/21 06:24:45;;;;;;;;;;;;;;;;;;8337368;28;27850;-77
2022/12/21 06:28:45;;;;;;;;;;;;;;;;;;8339500;28;27272;-79
2022/12/21 06:32:45;;;;;;;;;;;;;;;;;;8335368;28;27350;-77
2022/12/21 06:36:47;;;;;;;;;;;;;;;;;;8346263;28;28093;-78
2022/12/21 06:40:47;;;;;;;;;;;;;;;;;;8346490;28;27213;-76
2022/12/21 06:44:47;;;;;;;;;;;;;;;;;;8342485;28;27317;-76
2022/12/21 06:48:47;;;;;;;;;;;;;;;;;;8342197;28;27314;-76
2022/12/21 06:52:47;;;;;;;;;;;;;;;;;;8342419;28;27372;-78
2022/12/21 06:56:47;;;;;;;;;;;;;;;;;;8342425;28;27399;-78
2022/12/21 07:00:49;;;;;;;;;;;;;;;;;;8343076;28;27648;-77
2022/12/21 07:04:52;;;;;;;;;;;;;;;;;;8342766;28;27986;-77
2022/12/21 07:08:52;;;;;;;;;;;;;;;;;;8332860;28;28694;-77
2022/12/21 07:12:52;;;;;;;;;;;;;;;;;;8344942;28;27971;-78
2022/12/21 07:16:52;;;;;;;;;;;;;;;;;;8330782;28;28512;-77
2022/12/21 07:20:53;;;;;;;;;;;;;;;;;;8345520;28;27601;-78
2022/12/21 07:24:53;;;;;;;;;;;;;;;;;;8339739;28;27971;-77
2022/12/21 07:28:53;;;;;;;;;;;;;;;;;;8339458;28;27873;-77
2022/12/21 07:32:53;;;;;;;;;;;;;;;;;;8342607;28;28113;-78
2022/12/21 07:36:53;;;;;;;;;;;;;;;;;;8340870;28;27671;-77
2022/12/21 07:40:53;;;;;;;;;;;;;;;;;;8342606;28;27175;-77
2022/12/21 07:44:53;;;;;;;;;;;;;;;;;;8342041;28;27409;-77
2022/12/21 07:48:53;;;;;;;;;;;;;;;;;;8325983;28;28636;-77
2022/12/21 07:52:54;;;;;;;;;;;;;;;;;;8329294;28;28249;-78
2022/12/21 07:56:54;;;;;;;;;;;;;;;;;;8343832;28;27328;-78
2022/12/21 08:00:54;;;;;;;;;;;;;;;;;;8324588;28;28424;-79
2022/12/21 08:04:54;;;;;;;;;;;;;;;;;;8341743;28;27403;-79
2022/12/21 08:08:54;;;;;;;;;;;;;;;;;;8336804;28;28542;-79
2022/12/21 08:12:54;;;;;;;;;;;;;;;;;;8340719;28;27756;-78
2022/12/21 08:16:54;;;;;;;;;;;;;;;;;;8346701;28;27413;-77
2022/12/21 08:20:54;;;;;;;;;;;;;;;;;;8339446;28;27426;-79
2022/12/21 08:24:54;;;;;;;;;;;;;;;;;;8342043;28;27551;-77
2022/12/21 08:28:54;;;;;;;;;;;;;;;;;;8328432;28;28167;-76
2022/12/21 08:32:54;;;;;;;;;;;;;;;;;;8337158;28;29223;-78
2022/12/21 08:36:54;;;;;;;;;;;;;;;;;;8339055;28;27371;-76
2022/12/21 08:40:54;;;;;;;;;;;;;;;;;;8341073;28;28447;-79
2022/12/21 08:44:55;;;;;;;;;;;;;;;;;;8322520;28;28562;-78
2022/12/21 08:48:55;;;;;;;;;;;;;;;;;;8341644;28;27432;-77
2022/12/21 08:52:55;;;;;;;;;;;;;;;;;;8336482;28;28315;-77
2022/12/21 08:56:55;;;;;;;;;;;;;;;;;;8334102;28;27877;-77
2022/12/21 09:00:55;;;;;;;;;;;;;;;;;;8323922;28;31067;-77
2022/12/21 09:04:55;;;;;;;;;;;;;;;;;;8337641;28;27150;-79
2022/12/21 09:08:56;;;;;;;;;;;;;;;;;;8342015;28;27125;-77
2022/12/21 09:12:56;;;;;;;;;;;;;;;;;;8339185;28;28716;-76
2022/12/21 09:16:56;;;;;;;;;;;;;;;;;;8336264;28;27570;-77
2022/12/21 09:20:56;;;;;;;;;;;;;;;;;;8340319;28;28151;-78
2022/12/21 09:24:56;;;;;;;;;;;;;;;;;;8340416;28;29600;-78
2022/12/21 09:28:56;;;;;;;;;;;;;;;;;;8333828;28;27688;-77
2022/12/21 09:32:58;;;;;;;;;;;;;;;;;;8336792;28;47714;-75
2022/12/21 09:36:59;;;;;;;;;;;;;;;;;;8325956;28;28360;-75
2022/12/21 09:40:59;;;;;;;;;;;;;;;;;;8323565;28;28553;-75
2022/12/21 09:44:59;;;;;;;;;;;;;;;;;;8333653;28;27562;-79
2022/12/21 09:48:59;;;;;;;;;;;;;;;;;;8321281;28;28839;-77
2022/12/21 09:52:59;;;;;;;;;;;;;;;;;;8338132;28;27734;-77
2022/12/21 09:56:59;;;;;;;;;;;;;;;;;;8326725;28;28836;-77
2022/12/21 10:00:59;;;;;;;;;;;;;;;;;;8344064;28;28811;-76
2022/12/21 10:04:59;;;;;;;;;;;;;;;;;;8335174;28;27777;-76
2022/12/21 10:08:59;;;;;;;;;;;;;;;;;;8340860;28;27639;-77
2022/12/21 10:12:59;;;;;;;;;;;;;;;;;;8345579;28;28531;-77
2022/12/21 10:16:59;;;;;;;;;;;;;;;;;;8349224;28;27429;-77
2022/12/21 10:21:00;;;;;;;;;;;;;;;;;;8345258;28;27268;-77
2022/12/21 10:25:00;;;;;;;;;;;;;;;;;;8343960;28;28141;-78
2022/12/21 10:29:00;;;;;;;;;;;;;;;;;;8343416;28;27246;-79
2022/12/21 10:33:00;;;;;;;;;;;;;;;;;;8327733;28;28589;-78
2022/12/21 10:37:00;;;;;;;;;;;;;;;;;;8324837;28;28813;-77
2022/12/21 10:41:01;;;;;;;;;;;;;;;;;;8329778;28;28591;-79
2022/12/21 10:45:01;;;;;;;;;;;;;;;;;;8341917;28;27605;-77
2022/12/21 10:49:01;;;;;;;;;;;;;;;;;;8346412;28;27941;-79
2022/12/21 10:53:01;;;;;;;;;;;;;;;;;;8347102;28;27340;-77
2022/12/21 10:57:02;;;;;;;;;;;;;;;;;;8335388;28;28803;-77
2022/12/21 11:01:02;;;;;;;;;;;;;;;;;;8332006;28;28568;-78
2022/12/21 11:05:02;;;;;;;;;;;;;;;;;;8343158;28;28086;-77
2022/12/21 11:09:02;;;;;;;;;;;;;;;;;;8345184;28;27734;-78
2022/12/21 11:13:02;;;;;;;;;;;;;;;;;;8330047;28;28786;-79
2022/12/21 11:17:02;;;;;;;;;;;;;;;;;;8344863;28;27600;-79
2022/12/21 11:21:02;;;;;;;;;;;;;;;;;;8342948;28;27270;-77
2022/12/21 11:25:02;;;;;;;;;;;;;;;;;;8327857;28;28319;-78
2022/12/21 11:29:03;;;;;;;;;;;;;;;;;;8341382;28;28711;-79
2022/12/21 11:33:03;;;;;;;;;;;;;;;;;;8342847;28;27187;-77
2022/12/21 11:37:03;;;;;;;;;;;;;;;;;;8343195;28;28587;-75
2022/12/21 11:41:03;;;;;;;;;;;;;;;;;;8343536;28;27747;-78
2022/12/21 11:45:03;;;;;;;;;;;;;;;;;;8476743;22;28907;-77
2022/12/21 11:49:03;;;;;;;;;;;;;;;;;;8407173;28;28482;-77
2022/12/21 11:53:03;;;;;;;;;;;;;;;;;;8406619;28;28485;-77
2022/12/21 11:57:03;;;;;;;;;;;;;;;;;;8374189;28;30169;-78
2022/12/21 12:01:04;;;;;;;;;;;;;;;;;;8367799;28;27426;-77
2022/12/21 12:05:04;;;;;;;;;;;;;;;;;;8371449;28;29565;-77
2022/12/21 12:09:04;;;;;;;;;;;;;;;;;;8370135;28;27695;-77
2022/12/21 12:13:04;;;;;;;;;;;;;;;;;;8371792;28;28109;-77
2022/12/21 12:17:04;;;;;;;;;;;;;;;;;;8373200;28;28859;-78
2022/12/21 12:21:04;;;;;;;;;;;;;;;;;;8375702;27;28418;-77
2022/12/21 12:25:04;;;;;;;;;;;;;;;;;;8370607;28;27543;-78
2022/12/21 12:29:04;;;;;;;;;;;;;;;;;;8374985;28;27484;-78
2022/12/21 12:33:05;;;;;;;;;;;;;;;;;;8371390;28;28451;-77
2022/12/21 12:37:05;;;;;;;;;;;;;;;;;;8367392;28;27727;-78
2022/12/21 12:41:05;;;;;;;;;;;;;;;;;;8374876;28;28649;-78
2022/12/21 12:45:05;;;;;;;;;;;;;;;;;;8369665;28;28368;-77
2022/12/21 12:49:05;;;;;;;;;;;;;;;;;;8367031;28;28710;-79
2022/12/21 12:53:05;;;;;;;;;;;;;;;;;;8369387;28;28594;-76
2022/12/21 12:57:05;;;;;;;;;;;;;;;;;;8375514;27;27195;-78
2022/12/21 13:01:06;;;;;;;;;;;;;;;;;;8371440;28;28823;-77
2022/12/21 13:05:06;;;;;;;;;;;;;;;;;;8369202;28;28057;-77
2022/12/21 13:09:06;;;;;;;;;;;;;;;;;;8375253;28;27543;-77
2022/12/21 13:13:06;;;;;;;;;;;;;;;;;;8370529;28;27770;-79
2022/12/21 13:17:06;;;;;;;;;;;;;;;;;;8373581;28;27925;-76
2022/12/21 13:21:06;;;;;;;;;;;;;;;;;;8375865;28;28763;-76
2022/12/21 13:25:06;;;;;;;;;;;;;;;;;;8376084;28;28249;-78
2022/12/21 13:29:06;;;;;;;;;;;;;;;;;;8369417;28;28914;-76
2022/12/21 13:33:06;;;;;;;;;;;;;;;;;;8369749;28;27406;-78
2022/12/21 13:37:06;;;;;;;;;;;;;;;;;;8371601;28;28061;-76
2022/12/21 13:41:07;;;;;;;;;;;;;;;;;;8370652;27;27144;-77
2022/12/21 13:45:07;;;;;;;;;;;;;;;;;;8367743;28;27234;-76
2022/12/21 13:49:07;;;;;;;;;;;;;;;;;;8366335;28;28033;-76
2022/12/21 13:53:07;;;;;;;;;;;;;;;;;;8371978;28;28161;-76
2022/12/21 13:57:07;;;;;;;;;;;;;;;;;;8369498;28;27902;-76
2022/12/21 14:01:07;;;;;;;;;;;;;;;;;;8371457;27;27452;-76
2022/12/21 14:05:08;;;;;;;;;;;;;;;;;;8366374;28;28604;-75
2022/12/21 14:09:08;;;;;;;;;;;;;;;;;;8371013;28;28480;-76
2022/12/21 14:13:08;;;;;;;;;;;;;;;;;;8368695;28;29601;-76
2022/12/21 14:17:08;;;;;;;;;;;;;;;;;;8368945;28;28563;-76
2022/12/21 14:21:08;;;;;;;;;;;;;;;;;;8369570;28;27560;-78
2022/12/21 14:25:08;;;;;;;;;;;;;;;;;;8368300;28;28816;-75
2022/12/21 14:29:09;;;;;;;;;;;;;;;;;;8369706;28;27329;-76
2022/12/21 14:33:09;;;;;;;;;;;;;;;;;;8368321;28;27315;-77
2022/12/21 14:37:09;;;;;;;;;;;;;;;;;;8366450;28;27301;-76
2022/12/21 14:41:09;;;;;;;;;;;;;;;;;;8366312;28;27946;-76
2022/12/21 14:45:09;;;;;;;;;;;;;;;;;;8365295;28;28331;-76
2022/12/21 14:49:09;;;;;;;;;;;;;;;;;;8356340;28;27752;-77
2022/12/21 14:53:09;;;;;;;;;;;;;;;;;;8303512;28;28526;-77
2022/12/21 14:57:09;;;;;;;;;;;;;;;;;;8327509;28;27858;-76
2022/12/21 15:01:09;;;;;;;;;;;;;;;;;;8343672;28;29682;-76
2022/12/21 15:05:09;;;;;;;;;;;;;;;;;;8329336;28;27926;-74
2022/12/21 15:09:10;;;;;;;;;;;;;;;;;;8330358;28;28309;-76
2022/12/21 15:13:10;;;;;;;;;;;;;;;;;;8337380;27;27917;-78
2022/12/21 15:17:10;;;;;;;;;;;;;;;;;;8316223;28;27734;-77
2022/12/21 15:21:10;;;;;;;;;;;;;;;;;;8328594;28;28948;-77
2022/12/21 15:25:10;;;;;;;;;;;;;;;;;;8336404;28;28080;-78
2022/12/21 15:29:10;;;;;;;;;;;;;;;;;;8326685;28;28312;-77
2022/12/21 15:33:10;;;;;;;;;;;;;;;;;;8324205;28;28668;-77
2022/12/21 15:37:10;;;;;;;;;;;;;;;;;;8345285;28;29391;-77
2022/12/21 15:41:10;;;;;;;;;;;;;;;;;;8332394;28;28422;-77
2022/12/21 15:45:11;;;;;;;;;;;;;;;;;;8322203;28;28166;-77
2022/12/21 15:49:11;;;;;;;;;;;;;;;;;;8332137;28;27288;-76
2022/12/21 15:53:11;;;;;;;;;;;;;;;;;;8321539;28;28661;-76
2022/12/21 15:57:11;;;;;;;;;;;;;;;;;;8320805;28;27645;-76
2022/12/21 16:01:11;;;;;;;;;;;;;;;;;;8335430;28;28667;-79
2022/12/21 16:05:11;;;;;;;;;;;;;;;;;;8317938;28;27404;-75
2022/12/21 16:09:11;;;;;;;;;;;;;;;;;;8315621;28;29162;-77
2022/12/21 16:13:11;;;;;;;;;;;;;;;;;;8337546;28;28218;-76
2022/12/21 16:17:11;;;;;;;;;;;;;;;;;;8311153;28;29618;-76
2022/12/21 16:21:11;;;;;;;;;;;;;;;;;;8314386;28;28808;-77
2022/12/21 16:25:12;;;;;;;;;;;;;;;;;;8337319;28;27741;-77
2022/12/21 16:29:12;;;;;;;;;;;;;;;;;;8314802;28;28144;-77
2022/12/21 16:33:12;;;;;;;;;;;;;;;;;;8311859;28;27877;-77
2022/12/21 16:37:13;;;;;;;;;;;;;;;;;;8331531;28;28952;-76
2022/12/21 16:41:13;;;;;;;;;;;;;;;;;;8316682;28;29670;-77
2022/12/21 16:45:13;;;;;;;;;;;;;;;;;;8315727;28;28241;-75
2022/12/21 16:49:13;;;;;;;;;;;;;;;;;;8334457;28;28375;-76
2022/12/21 16:53:13;;;;;;;;;;;;;;;;;;8296161;28;28212;-76
2022/12/21 16:57:13;;;;;;;;;;;;;;;;;;8302629;28;29135;-76
2022/12/21 17:01:13;;;;;;;;;;;;;;;;;;8327527;28;28510;-76
2022/12/21 17:05:14;;;;;;;;;;;;;;;;;;8306592;28;28501;-76
2022/12/21 17:09:14;;;;;;;;;;;;;;;;;;8311142;28;27960;-76
2022/12/21 17:13:14;;;;;;;;;;;;;;;;;;8327953;28;28431;-77
2022/12/21 17:17:14;;;;;;;;;;;;;;;;;;8305084;28;29000;-76
2022/12/21 17:21:14;;;;;;;;;;;;;;;;;;8292321;28;28816;-76
2022/12/21 17:25:14;;;;;;;;;;;;;;;;;;8288358;28;27655;-77
2022/12/21 17:29:14;;;;;;;;;;;;;;;;;;8316927;28;28542;-79
2022/12/21 17:33:14;;;;;;;;;;;;;;;;;;8295115;28;28797;-79
2022/12/21 17:37:14;;;;;;;;;;;;;;;;;;8291697;28;28077;-78
2022/12/21 17:41:14;;;;;;;;;;;;;;;;;;8319839;28;28639;-77
2022/12/21 17:45:15;;;;;;;;;;;;;;;;;;8291270;28;28984;-79
2022/12/21 17:49:15;;;;;;;;;;;;;;;;;;8291177;27;28479;-77
2022/12/21 17:53:15;;;;;;;;;;;;;;;;;;8317361;28;27641;-77
2022/12/21 17:57:15;;;;;;;;;;;;;;;;;;8300354;28;28644;-77
2022/12/21 18:01:15;;;;;;;;;;;;;;;;;;8288454;28;28544;-77
2022/12/21 18:05:15;;;;;;;;;;;;;;;;;;8314306;28;28703;-75
2022/12/21 18:09:15;;;;;;;;;;;;;;;;;;8295820;28;28699;-77
2022/12/21 18:13:16;;;;;;;;;;;;;;;;;;8299865;28;28847;-75
2022/12/21 18:17:16;;;;;;;;;;;;;;;;;;8316365;28;28659;-77
2022/12/21 18:21:16;;;;;;;;;;;;;;;;;;8291368;28;28269;-77
2022/12/21 18:25:16;;;;;;;;;;;;;;;;;;8282478;28;28390;-77
2022/12/21 18:29:16;;;;;;;;;;;;;;;;;;8314640;28;27606;-75
2022/12/21 18:33:16;;;;;;;;;;;;;;;;;;8299951;28;28972;-77
2022/12/21 18:37:16;;;;;;;;;;;;;;;;;;8325451;28;27641;-76
2022/12/21 18:41:16;;;;;;;;;;;;;;;;;;8376035;28;27993;-77
2022/12/21 18:45:17;;;;;;;;;;;;;;;;;;8373914;28;28103;-77
2022/12/21 18:49:17;;;;;;;;;;;;;;;;;;8376942;28;28524;-75
2022/12/21 18:53:17;;;;;;;;;;;;;;;;;;8374024;28;27720;-77
2022/12/21 18:57:17;;;;;;;;;;;;;;;;;;8376589;28;28741;-77
2022/12/21 19:01:17;;;;;;;;;;;;;;;;;;8375046;28;28765;-76
2022/12/21 19:05:17;;;;;;;;;;;;;;;;;;8374306;28;27995;-78
2022/12/21 19:09:17;;;;;;;;;;;;;;;;;;8367095;28;28206;-76
2022/12/21 19:13:18;;;;;;;;;;;;;;;;;;8370945;28;27320;-77
2022/12/21 19:17:18;;;;;;;;;;;;;;;;;;8375399;28;28371;-77
2022/12/21 19:21:18;;;;;;;;;;;;;;;;;;8379570;28;28728;-77
2022/12/21 19:25:18;;;;;;;;;;;;;;;;;;8369262;28;27889;-77
2022/12/21 19:29:18;;;;;;;;;;;;;;;;;;8369587;28;27566;-78
2022/12/21 19:33:19;;;;;;;;;;;;;;;;;;8371778;28;27601;-75
2022/12/21 19:37:20;;;;;;;;;;;;;;;;;;8352277;28;28935;-76
2022/12/21 19:41:20;;;;;;;;;;;;;;;;;;8357746;28;28725;-77
2022/12/21 19:45:20;;;;;;;;;;;;;;;;;;8356014;28;28897;-77
2022/12/21 19:49:20;;;;;;;;;;;;;;;;;;8339742;28;27894;-76
2022/12/21 19:53:20;;;;;;;;;;;;;;;;;;8353618;28;28061;-76
2022/12/21 19:57:21;;;;;;;;;;;;;;;;;;8348119;28;27922;-78
2022/12/21 20:01:21;;;;;;;;;;;;;;;;;;8336060;28;28151;-75
2022/12/21 20:05:21;;;;;;;;;;;;;;;;;;8355105;28;28196;-76
2022/12/21 20:09:21;;;;;;;;;;;;;;;;;;8353767;28;28294;-76
2022/12/21 20:13:21;;;;;;;;;;;;;;;;;;8340652;28;29086;-74
2022/12/21 20:17:21;;;;;;;;;;;;;;;;;;8353639;28;28565;-76
2022/12/21 20:21:21;;;;;;;;;;;;;;;;;;8356445;28;27846;-76
2022/12/21 20:25:21;;;;;;;;;;;;;;;;;;8335205;28;27785;-76
2022/12/21 20:29:21;;;;;;;;;;;;;;;;;;8352891;28;28327;-76
2022/12/21 20:33:21;;;;;;;;;;;;;;;;;;8358066;28;28245;-76
2022/12/21 20:37:22;;;;;;;;;;;;;;;;;;8334271;28;29462;-76
2022/12/21 20:41:22;;;;;;;;;;;;;;;;;;8350116;28;29428;-75
2022/12/21 20:45:22;;;;;;;;;;;;;;;;;;8352043;28;28522;-76
2022/12/21 20:49:25;;;;;;;;;;;;;;;;;;8340841;28;28067;-76
2022/12/21 20:53:25;;;;;;;;;;;;;;;;;;8350194;28;28558;-78
2022/12/21 20:57:26;;;;;;;;;;;;;;;;;;8350802;28;28468;-78
2022/12/21 21:01:26;;;;;;;;;;;;;;;;;;8341539;28;28781;-76
2022/12/21 21:05:26;;;;;;;;;;;;;;;;;;8349032;28;27466;-78
2022/12/21 21:09:26;;;;;;;;;;;;;;;;;;8354314;28;28286;-76
2022/12/21 21:13:26;;;;;;;;;;;;;;;;;;8331402;28;28663;-76
2022/12/21 21:17:26;;;;;;;;;;;;;;;;;;8353200;28;28207;-76
2022/12/21 21:25:53;;;;;;;;;;;;;;;;;;8324830;28;28526;-76
2022/12/21 21:29:53;;;;;;;;;;;;;;;;;;8350863;28;27349;-78
2022/12/21 21:33:54;;;;;;;;;;;;;;;;;;8345122;28;28051;-75
2022/12/21 21:42:13;;;;;;;;;;;;;;;;;;8357707;28;27820;-76
2022/12/21 21:46:13;;;;;;;;;;;;;;;;;;8368779;28;27878;-75
2022/12/21 21:50:13;;;;;;;;;;;;;;;;;;8367724;28;27452;-79
2022/12/21 21:54:13;;;;;;;;;;;;;;;;;;8369496;28;28656;-77
2022/12/21 21:58:13;;;;;;;;;;;;;;;;;;8363613;28;27359;-76
2022/12/21 22:02:13;;;;;;;;;;;;;;;;;;8364156;28;29600;-77
2022/12/21 22:06:13;;;;;;;;;;;;;;;;;;8373294;28;28252;-77
2022/12/21 22:10:32;;;;;;;;;;;;;;;;;;8374287;28;27950;-78
2022/12/21 22:14:32;;;;;;;;;;;;;;;;;;8373606;28;28235;-77
2022/12/21 22:18:33;;;;;;;;;;;;;;;;;;8380803;28;28163;-78
2022/12/21 22:44:08;;;;;;;;;;;;;;;;;;8371163;28;27336;-76
2022/12/21 22:48:08;;;;;;;;;;;;;;;;;;8371399;28;27702;-75
2022/12/21 22:52:08;;;;;;;;;;;;;;;;;;8370190;28;29942;-75
2022/12/21 22:56:08;;;;;;;;;;;;;;;;;;8375728;27;27609;-75
2022/12/21 23:00:08;;;;;;;;;;;;;;;;;;8369903;28;28155;-76
2022/12/21 23:04:08;;;;;;;;;;;;;;;;;;8375681;28;29386;-74
2022/12/21 23:08:08;;;;;;;;;;;;;;;;;;8376198;28;27427;-75
2022/12/21 23:16:27;;;;;;;;;;;;;;;;;;8377685;28;27625;-75
2022/12/21 23:20:27;;;;;;;;;;;;;;;;;;8375729;28;28034;-78
2022/12/21 23:28:47;;;;;;;;;;;;;;;;;;8376721;28;27525;-75
2022/12/21 23:45:43;;;;;;;;;;;;;;;;;;8366690;28;27893;-74
